Time;durP1;ratioP1;P1;durP2;ratioP2;P2;SDS_P1;SDS_P2;PMS_P1;PMS_P2;Temp;Humidity;BMP_temperature;BMP_pressure;BME280_temperature;BME280_humidity;BME280_pressure;Samples;Min_cycle;Max_cycle;Signal;HPM_P1;HPM_P2
2023/07/28 00:01:37;;;;;;;;;;;16.90;99.90;;;;;;12509674;28;20007;-43
2023/07/28 00:07:40;;;;;;;;;;;17.00;99.90;;;;;;12509107;28;19925;-43
2023/07/28 00:13:43;;;;;;;;;;;17.00;99.90;;;;;;12516966;28;19933;-43
2023/07/28 00:19:45;;;;;;;;;;;16.90;99.90;;;;;;12523268;28;19925;-43
2023/07/28 00:25:48;;;;;;;;;;;16.90;99.90;;;;;;12513502;28;19955;-43
2023/07/28 00:31:50;;;;;;;;;;;16.90;99.90;;;;;;12505332;28;19936;-43
2023/07/28 00:37:52;;;;;;;;;;;16.90;99.90;;;;;;12516701;28;20007;-42
2023/07/28 00:43:55;;;;;;;;;;;16.90;99.90;;;;;;12512943;28;19975;-43
2023/07/28 00:49:58;;;;;;;;;;;16.90;99.90;;;;;;12520905;28;19928;-42
2023/07/28 00:56:02;;;;;;;;;;;16.90;99.90;;;;;;12518939;28;20408;-43
2023/07/28 01:02:05;;;;;;;;;;;16.90;99.90;;;;;;12512274;28;20381;-43
2023/07/28 01:08:19;;;;;;;;;;;16.90;99.90;;;;;;12516114;28;19929;-42
2023/07/28 01:14:22;;;;;;;;;;;16.90;99.90;;;;;;12510981;28;20293;-43
2023/07/28 01:20:27;;;;;;;;;;;16.80;99.90;;;;;;12529751;28;20284;-43
2023/07/28 01:26:34;;;;;;;;;;;16.80;99.90;;;;;;12521274;28;19962;-43
2023/07/28 01:32:37;;;;;;;;;;;16.90;99.90;;;;;;12506869;28;19925;-43
2023/07/28 01:38:40;;;;;;;;;;;16.90;99.90;;;;;;12491772;28;19948;-42
2023/07/28 01:44:43;;;;;;;;;;;16.90;99.90;;;;;;12512293;28;19924;-43
2023/07/28 01:50:46;;;;;;;;;;;16.90;99.90;;;;;;12517649;28;19928;-43
2023/07/28 01:56:48;;;;;;;;;;;16.90;99.90;;;;;;12531384;28;19924;-43
2023/07/28 02:02:51;;;;;;;;;;;16.90;99.90;;;;;;12519981;28;19925;-43
2023/07/28 02:08:56;;;;;;;;;;;16.90;99.90;;;;;;12530614;28;20019;-43
2023/07/28 02:14:59;;;;;;;;;;;16.90;99.90;;;;;;12509830;28;19977;-43
2023/07/28 02:21:01;;;;;;;;;;;16.80;99.90;;;;;;12530821;28;19921;-43
2023/07/28 02:27:05;;;;;;;;;;;16.80;99.90;;;;;;12525038;28;20031;-42
2023/07/28 02:33:07;;;;;;;;;;;16.80;99.90;;;;;;12527991;28;20277;-43
2023/07/28 02:39:10;;;;;;;;;;;16.80;99.90;;;;;;12521499;28;20417;-43
2023/07/28 02:45:12;;;;;;;;;;;16.80;99.90;;;;;;12524351;28;19952;-43
2023/07/28 02:51:14;;;;;;;;;;;16.80;99.90;;;;;;12517835;28;19964;-43
2023/07/28 02:57:17;;;;;;;;;;;16.70;99.90;;;;;;12528461;28;19921;-43
2023/07/28 03:03:20;;;;;;;;;;;16.80;99.90;;;;;;12515144;28;20389;-43
2023/07/28 03:09:23;;;;;;;;;;;16.70;99.90;;;;;;12506782;28;19967;-43
2023/07/28 03:15:25;;;;;;;;;;;16.70;99.90;;;;;;12516194;28;20296;-43
2023/07/28 03:21:31;;;;;;;;;;;16.70;99.90;;;;;;12514774;28;19959;-43
2023/07/28 03:27:33;;;;;;;;;;;16.60;99.90;;;;;;12519638;28;19970;-43
2023/07/28 03:33:35;;;;;;;;;;;16.70;99.90;;;;;;12504915;28;19921;-43
2023/07/28 03:39:38;;;;;;;;;;;16.70;99.90;;;;;;12511792;28;20396;-43
2023/07/28 03:45:41;;;;;;;;;;;16.70;99.90;;;;;;12508871;28;20389;-43
2023/07/28 03:51:43;;;;;;;;;;;16.70;99.90;;;;;;12514430;28;19924;-43
2023/07/28 03:57:46;;;;;;;;;;;16.70;99.90;;;;;;12527867;28;20265;-43
2023/07/28 04:03:48;;;;;;;;;;;16.70;99.90;;;;;;12516058;28;19920;-43
2023/07/28 04:09:51;;;;;;;;;;;16.70;99.90;;;;;;12505308;28;19948;-43
2023/07/28 04:15:54;;;;;;;;;;;16.70;99.90;;;;;;12494906;28;19920;-42
2023/07/28 04:21:57;;;;;;;;;;;16.70;99.90;;;;;;12515202;28;20381;-43
2023/07/28 04:27:59;;;;;;;;;;;16.70;99.90;;;;;;12517593;28;19921;-43
2023/07/28 04:34:03;;;;;;;;;;;16.70;99.90;;;;;;12511635;28;19947;-43
2023/07/28 04:40:05;;;;;;;;;;;16.80;99.90;;;;;;12506797;28;19924;-43
2023/07/28 04:46:07;;;;;;;;;;;16.70;99.90;;;;;;12480371;28;20007;-43
2023/07/28 04:52:11;;;;;;;;;;;16.80;99.90;;;;;;12504850;28;19932;-43
2023/07/28 04:58:14;;;;;;;;;;;16.80;99.90;;;;;;12499637;28;19921;-43
2023/07/28 05:04:19;;;;;;;;;;;16.90;99.90;;;;;;12505588;28;20442;-43
2023/07/28 05:10:21;;;;;;;;;;;16.90;99.90;;;;;;12521572;28;20371;-43
2023/07/28 05:16:24;;;;;;;;;;;16.90;99.90;;;;;;12512997;28;19994;-43
2023/07/28 05:22:27;;;;;;;;;;;16.90;99.90;;;;;;12522143;28;20054;-42
2023/07/28 05:28:34;;;;;;;;;;;17.00;99.90;;;;;;12507006;28;19924;-42
2023/07/28 05:34:36;;;;;;;;;;;17.00;99.90;;;;;;12529257;28;19948;-43
2023/07/28 05:40:39;;;;;;;;;;;17.00;99.90;;;;;;12509963;28;20336;-43
2023/07/28 05:46:43;;;;;;;;;;;16.90;99.90;;;;;;12515088;28;20347;-43
2023/07/28 05:52:45;;;;;;;;;;;17.00;99.90;;;;;;12518752;28;20456;-42
2023/07/28 05:58:48;;;;;;;;;;;17.10;99.90;;;;;;12512814;28;20439;-43
2023/07/28 06:04:52;;;;;;;;;;;17.10;99.90;;;;;;12507097;28;20011;-43
2023/07/28 06:10:55;;;;;;;;;;;17.20;99.90;;;;;;12514964;28;19921;-43
2023/07/28 06:16:58;;;;;;;;;;;17.20;99.90;;;;;;12502707;28;20032;-43
2023/07/28 06:23:01;;;;;;;;;;;17.20;99.90;;;;;;12522272;28;19921;-43
2023/07/28 06:29:04;;;;;;;;;;;17.20;99.90;;;;;;12523677;28;19928;-43
2023/07/28 06:35:07;;;;;;;;;;;17.40;99.90;;;;;;12508982;28;19927;-43
2023/07/28 06:41:09;;;;;;;;;;;17.50;99.90;;;;;;12502819;28;20389;-43
2023/07/28 06:47:12;;;;;;;;;;;17.50;99.90;;;;;;12508044;28;20638;-43
2023/07/28 06:53:14;;;;;;;;;;;17.50;99.90;;;;;;12503431;28;20012;-43
2023/07/28 06:59:18;;;;;;;;;;;17.50;99.90;;;;;;12501064;28;19944;-43
2023/07/28 07:05:23;;;;;;;;;;;17.60;99.90;;;;;;12536267;28;19921;-43
2023/07/28 07:11:26;;;;;;;;;;;17.60;99.90;;;;;;12506898;28;19931;-43
2023/07/28 07:17:28;;;;;;;;;;;17.80;99.90;;;;;;12514309;28;19979;-43
2023/07/28 07:23:31;;;;;;;;;;;18.00;99.90;;;;;;12525272;28;19921;-43
2023/07/28 07:29:33;;;;;;;;;;;18.30;99.90;;;;;;12516560;28;20313;-44
2023/07/28 07:35:37;;;;;;;;;;;18.40;99.90;;;;;;12520154;28;19928;-44
2023/07/28 07:41:40;;;;;;;;;;;18.60;99.90;;;;;;12518686;28;19935;-43
2023/07/28 07:47:43;;;;;;;;;;;18.70;99.90;;;;;;12516912;28;20286;-44
2023/07/28 07:53:45;;;;;;;;;;;18.80;99.90;;;;;;12511239;28;20314;-43
2023/07/28 07:59:48;;;;;;;;;;;18.90;99.90;;;;;;12497841;28;19955;-43
2023/07/28 08:05:52;;;;;;;;;;;18.90;99.90;;;;;;12516771;28;20331;-44
2023/07/28 08:11:56;;;;;;;;;;;19.10;99.90;;;;;;12512198;28;19947;-43
2023/07/28 08:17:59;;;;;;;;;;;19.20;99.90;;;;;;12515813;28;20388;-43
2023/07/28 08:24:01;;;;;;;;;;;19.10;99.90;;;;;;12518318;28;19924;-43
2023/07/28 08:30:05;;;;;;;;;;;19.10;99.90;;;;;;12517045;28;19925;-43
2023/07/28 08:36:07;;;;;;;;;;;19.20;99.90;;;;;;12500446;28;19924;-43
2023/07/28 08:42:11;;;;;;;;;;;19.30;99.90;;;;;;12508108;28;19925;-44
2023/07/28 08:48:14;;;;;;;;;;;19.50;99.90;;;;;;12500066;28;20262;-44
2023/07/28 08:54:16;;;;;;;;;;;19.80;99.90;;;;;;12500436;28;19921;-43
2023/07/28 09:00:19;;;;;;;;;;;19.80;99.90;;;;;;12502595;28;19921;-43
2023/07/28 09:06:30;;;;;;;;;;;19.90;99.90;;;;;;12496228;28;20019;-43
2023/07/28 09:12:33;;;;;;;;;;;20.00;99.90;;;;;;12493314;28;19974;-43
2023/07/28 09:18:36;;;;;;;;;;;20.20;99.90;;;;;;12497471;28;19920;-43
2023/07/28 09:24:39;;;;;;;;;;;20.50;99.90;;;;;;12521605;28;20391;-43
2023/07/28 09:30:46;;;;;;;;;;;20.80;99.90;;;;;;12502303;28;19990;-43
2023/07/28 09:36:49;;;;;;;;;;;21.00;99.90;;;;;;12517299;28;19974;-44
2023/07/28 09:42:54;;;;;;;;;;;20.70;99.90;;;;;;12520788;28;19925;-44
2023/07/28 09:48:59;;;;;;;;;;;20.30;99.90;;;;;;12513281;28;19936;-44
2023/07/28 09:55:05;;;;;;;;;;;20.50;99.90;;;;;;12492871;28;19932;-44
2023/07/28 10:01:09;;;;;;;;;;;20.90;99.90;;;;;;12493414;28;19924;-44
2023/07/28 10:07:12;;;;;;;;;;;21.20;99.90;;;;;;12508610;28;20157;-44
2023/07/28 10:13:20;;;;;;;;;;;21.60;99.90;;;;;;12499196;28;19921;-43
2023/07/28 10:19:24;;;;;;;;;;;21.00;99.90;;;;;;12535246;28;19924;-43
2023/07/28 10:25:27;;;;;;;;;;;20.70;99.90;;;;;;12514018;28;19924;-43
2023/07/28 10:31:30;;;;;;;;;;;20.80;99.90;;;;;;12508273;28;20055;-44
2023/07/28 10:37:34;;;;;;;;;;;21.30;99.90;;;;;;12513670;28;19929;-43
2023/07/28 10:43:36;;;;;;;;;;;21.30;99.90;;;;;;12507818;28;19925;-44
2023/07/28 10:49:39;;;;;;;;;;;21.20;99.90;;;;;;12495114;28;20400;-44
2023/07/28 10:55:42;;;;;;;;;;;21.10;99.90;;;;;;12504230;28;19933;-44
2023/07/28 11:01:47;;;;;;;;;;;21.20;99.90;;;;;;12506193;28;19928;-43
2023/07/28 11:07:50;;;;;;;;;;;21.30;99.90;;;;;;12520513;28;19928;-44
2023/07/28 11:13:52;;;;;;;;;;;21.30;99.90;;;;;;12507779;28;19932;-43
2023/07/28 11:19:56;;;;;;;;;;;22.20;99.90;;;;;;12496007;28;19921;-44
2023/07/28 11:26:00;;;;;;;;;;;22.30;99.90;;;;;;12520247;28;19920;-43
2023/07/28 11:32:05;;;;;;;;;;;21.90;99.90;;;;;;12521101;28;19924;-42
2023/07/28 11:38:08;;;;;;;;;;;21.90;99.90;;;;;;12511605;28;19925;-43
2023/07/28 11:44:12;;;;;;;;;;;21.80;99.90;;;;;;12526784;28;20031;-43
2023/07/28 11:50:21;;;;;;;;;;;21.40;99.90;;;;;;12502951;28;19963;-43
2023/07/28 11:56:24;;;;;;;;;;;21.40;99.90;;;;;;12502212;28;19997;-43
2023/07/28 12:02:30;;;;;;;;;;;22.10;99.90;;;;;;12507064;28;20099;-43
2023/07/28 12:08:36;;;;;;;;;;;21.90;99.90;;;;;;12506161;28;19961;-44
2023/07/28 12:14:39;;;;;;;;;;;22.30;99.90;;;;;;12480848;28;19970;-44
2023/07/28 12:20:49;;;;;;;;;;;22.20;99.90;;;;;;12527060;28;20419;-43
2023/07/28 12:26:52;;;;;;;;;;;22.70;99.90;;;;;;12497010;28;19928;-44
2023/07/28 12:32:55;;;;;;;;;;;22.90;99.90;;;;;;12499784;28;19921;-43
2023/07/28 12:39:01;;;;;;;;;;;23.10;99.90;;;;;;12494107;28;19920;-44
2023/07/28 12:45:25;;;;;;;;;;;22.90;99.90;;;;;;12504052;28;20016;-43
2023/07/28 12:51:28;;;;;;;;;;;22.60;99.90;;;;;;12504557;28;20417;-43
2023/07/28 12:57:51;;;;;;;;;;;22.20;99.90;;;;;;12506626;28;20378;-44
2023/07/28 13:03:54;;;;;;;;;;;22.50;99.90;;;;;;12492966;28;19920;-44
2023/07/28 13:09:57;;;;;;;;;;;22.70;99.90;;;;;;12493464;28;19927;-44
2023/07/28 13:16:00;;;;;;;;;;;22.30;99.90;;;;;;12504031;28;19925;-44
2023/07/28 13:22:03;;;;;;;;;;;22.70;99.90;;;;;;12514698;28;20318;-44
2023/07/28 13:28:05;;;;;;;;;;;23.10;99.90;;;;;;12504432;28;19940;-44
2023/07/28 13:34:13;;;;;;;;;;;23.40;99.90;;;;;;12511326;28;20042;-44
2023/07/28 13:40:16;;;;;;;;;;;23.10;99.90;;;;;;12510087;28;20297;-44
2023/07/28 13:46:19;;;;;;;;;;;23.40;99.90;;;;;;12518705;28;19943;-43
2023/07/28 13:52:22;;;;;;;;;;;23.60;99.90;;;;;;12504490;28;20011;-43
2023/07/28 13:58:24;;;;;;;;;;;23.40;99.90;;;;;;12530741;28;20017;-44
2023/07/28 14:04:27;;;;;;;;;;;23.60;99.90;;;;;;12532659;28;19920;-43
2023/07/28 14:10:32;;;;;;;;;;;23.90;99.90;;;;;;12501154;28;20447;-43
2023/07/28 14:16:35;;;;;;;;;;;24.10;99.90;;;;;;12500431;28;19921;-43
2023/07/28 14:22:38;;;;;;;;;;;24.20;99.90;;;;;;12518720;28;19929;-43
2023/07/28 14:28:40;;;;;;;;;;;24.20;99.90;;;;;;12511211;28;19947;-43
2023/07/28 14:34:45;;;;;;;;;;;24.20;99.90;;;;;;12516712;28;19921;-43
2023/07/28 14:40:51;;;;;;;;;;;24.10;99.90;;;;;;12517934;28;20440;-43
2023/07/28 14:46:54;;;;;;;;;;;24.20;99.90;;;;;;12509825;28;19921;-43
2023/07/28 14:52:59;;;;;;;;;;;24.20;99.90;;;;;;12506215;28;19967;-43
2023/07/28 14:59:03;;;;;;;;;;;24.40;99.90;;;;;;12497099;28;20581;-43
2023/07/28 15:05:07;;;;;;;;;;;24.50;99.90;;;;;;12515936;28;19928;-43
2023/07/28 15:11:09;;;;;;;;;;;24.40;99.90;;;;;;12513948;28;19944;-43
2023/07/28 15:17:12;;;;;;;;;;;24.30;99.90;;;;;;12495641;28;19971;-44
2023/07/28 15:23:16;;;;;;;;;;;24.10;99.90;;;;;;12518463;28;19925;-43
2023/07/28 15:29:19;;;;;;;;;;;24.20;99.90;;;;;;12507584;28;19928;-44
2023/07/28 15:35:22;;;;;;;;;;;24.50;99.90;;;;;;12502945;28;19920;-43
2023/07/28 15:41:25;;;;;;;;;;;24.10;99.90;;;;;;12513860;28;19935;-44
2023/07/28 15:47:28;;;;;;;;;;;23.70;99.90;;;;;;12504614;28;19925;-43
2023/07/28 15:53:31;;;;;;;;;;;23.70;99.90;;;;;;12488392;28;19932;-43
2023/07/28 15:59:36;;;;;;;;;;;23.70;99.90;;;;;;12487832;28;19929;-43
2023/07/28 16:05:39;;;;;;;;;;;24.10;99.90;;;;;;12510341;28;19920;-43
2023/07/28 16:11:41;;;;;;;;;;;24.20;99.90;;;;;;12504184;28;19924;-43
2023/07/28 16:17:45;;;;;;;;;;;24.20;99.90;;;;;;12498097;28;19924;-43
2023/07/28 16:23:49;;;;;;;;;;;24.10;99.90;;;;;;12513142;28;19960;-43
2023/07/28 16:29:52;;;;;;;;;;;24.50;99.90;;;;;;12497448;28;19921;-43
2023/07/28 16:35:56;;;;;;;;;;;24.50;99.90;;;;;;12502403;28;19921;-43
2023/07/28 16:41:59;;;;;;;;;;;24.30;99.90;;;;;;12503560;28;19925;-43
2023/07/28 16:48:03;;;;;;;;;;;23.90;99.90;;;;;;12513190;28;19928;-43
2023/07/28 16:54:06;;;;;;;;;;;24.00;99.90;;;;;;12493489;28;19963;-43
2023/07/28 17:00:16;;;;;;;;;;;24.40;99.90;;;;;;12504349;28;19966;-43
2023/07/28 17:06:18;;;;;;;;;;;24.60;99.90;;;;;;12504485;28;20297;-43
2023/07/28 17:12:22;;;;;;;;;;;24.80;99.90;;;;;;12504001;28;19925;-43
2023/07/28 17:18:26;;;;;;;;;;;24.60;99.90;;;;;;12512721;28;19920;-43
2023/07/28 17:24:31;;;;;;;;;;;24.20;99.90;;;;;;12501769;28;20005;-43
2023/07/28 17:30:36;;;;;;;;;;;23.60;99.90;;;;;;12503433;28;20014;-42
2023/07/28 17:36:38;;;;;;;;;;;23.40;99.90;;;;;;12508934;28;20305;-43
2023/07/28 17:42:43;;;;;;;;;;;23.70;99.90;;;;;;12453102;28;1685345;-43
2023/07/28 17:48:50;;;;;;;;;;;24.10;99.90;;;;;;12528490;28;19961;-43
2023/07/28 17:54:56;;;;;;;;;;;24.20;99.90;;;;;;12515140;28;19928;-43
2023/07/28 18:00:58;;;;;;;;;;;24.60;99.90;;;;;;12500562;28;20023;-43
2023/07/28 18:07:01;;;;;;;;;;;24.90;99.90;;;;;;12522793;28;19931;-43
2023/07/28 18:13:05;;;;;;;;;;;24.60;99.90;;;;;;12497581;28;19939;-43
2023/07/28 18:19:08;;;;;;;;;;;24.00;99.90;;;;;;12506652;28;19975;-43
2023/07/28 18:25:12;;;;;;;;;;;23.60;99.90;;;;;;12520660;28;19921;-43
2023/07/28 18:31:14;;;;;;;;;;;23.40;99.90;;;;;;12490702;28;20377;-43
2023/07/28 18:37:17;;;;;;;;;;;23.10;99.90;;;;;;12518090;28;19921;-43
2023/07/28 18:43:20;;;;;;;;;;;22.90;99.90;;;;;;12532572;28;19921;-43
2023/07/28 18:49:22;;;;;;;;;;;22.80;99.90;;;;;;12504345;28;19928;-43
2023/07/28 18:55:25;;;;;;;;;;;22.60;99.90;;;;;;12514005;28;19928;-43
2023/07/28 19:01:28;;;;;;;;;;;22.40;99.90;;;;;;12503672;28;20258;-43
2023/07/28 19:07:30;;;;;;;;;;;22.20;99.90;;;;;;12517314;28;20011;-43
2023/07/28 19:13:33;;;;;;;;;;;22.10;99.90;;;;;;12507602;28;19921;-43
2023/07/28 19:19:36;;;;;;;;;;;21.90;99.90;;;;;;12532741;28;19924;-43
2023/07/28 19:25:39;;;;;;;;;;;21.80;99.90;;;;;;12513841;28;19925;-43
2023/07/28 19:31:41;;;;;;;;;;;21.80;99.90;;;;;;12496129;28;19968;-43
2023/07/28 19:37:44;;;;;;;;;;;21.80;99.90;;;;;;12514186;28;20407;-43
2023/07/28 19:43:47;;;;;;;;;;;21.70;99.90;;;;;;12518606;28;19994;-43
2023/07/28 19:49:50;;;;;;;;;;;21.70;99.90;;;;;;12500945;28;19921;-43
2023/07/28 19:56:11;;;;;;;;;;;21.60;99.90;;;;;;12514673;28;19927;-43
2023/07/28 20:02:13;;;;;;;;;;;21.50;99.90;;;;;;12506012;28;19921;-43
2023/07/28 20:08:15;;;;;;;;;;;21.40;99.90;;;;;;12491003;28;20396;-44
2023/07/28 20:14:18;;;;;;;;;;;21.30;99.90;;;;;;12498494;28;19931;-42
2023/07/28 20:20:20;;;;;;;;;;;21.20;99.90;;;;;;12522082;28;19924;-43
2023/07/28 20:26:23;;;;;;;;;;;21.20;99.90;;;;;;12517514;28;20374;-42
2023/07/28 20:32:26;;;;;;;;;;;21.20;99.90;;;;;;12517657;28;19925;-43
2023/07/28 20:38:30;;;;;;;;;;;21.20;99.90;;;;;;12507001;28;20339;-43
2023/07/28 20:44:32;;;;;;;;;;;21.10;99.90;;;;;;12501311;28;20009;-43
2023/07/28 20:50:35;;;;;;;;;;;21.00;99.90;;;;;;12492206;28;20003;-43
2023/07/28 20:56:37;;;;;;;;;;;21.00;99.90;;;;;;12504475;28;19955;-43
2023/07/28 21:02:39;;;;;;;;;;;20.90;99.90;;;;;;12485257;28;19924;-43
2023/07/28 21:08:42;;;;;;;;;;;20.90;99.90;;;;;;12521255;28;19974;-43
2023/07/28 21:14:44;;;;;;;;;;;21.00;99.90;;;;;;12520960;28;20023;-43
2023/07/28 21:20:46;;;;;;;;;;;20.80;99.90;;;;;;12502436;28;19999;-43
2023/07/28 21:26:49;;;;;;;;;;;20.80;99.90;;;;;;12504332;28;19990;-43
2023/07/28 21:32:58;;;;;;;;;;;20.70;99.90;;;;;;12485778;28;19920;-43
2023/07/28 21:39:01;;;;;;;;;;;20.60;99.90;;;;;;12508226;28;19921;-43
2023/07/28 21:45:04;;;;;;;;;;;20.50;99.90;;;;;;12510838;28;20313;-43
2023/07/28 21:51:07;;;;;;;;;;;20.40;99.90;;;;;;12499916;28;19924;-43
2023/07/28 21:57:09;;;;;;;;;;;20.30;99.90;;;;;;12500865;28;20361;-43
2023/07/28 22:03:13;;;;;;;;;;;20.20;99.90;;;;;;12494384;28;19928;-43
2023/07/28 22:09:16;;;;;;;;;;;20.10;99.90;;;;;;12510382;28;19921;-43
2023/07/28 22:15:18;;;;;;;;;;;20.10;99.90;;;;;;12507974;28;20412;-43
2023/07/28 22:21:20;;;;;;;;;;;20.00;99.90;;;;;;12521886;28;19931;-43
2023/07/28 22:27:23;;;;;;;;;;;19.90;99.90;;;;;;12513839;28;20296;-44
2023/07/28 22:33:26;;;;;;;;;;;19.90;99.90;;;;;;12517587;28;20401;-43
2023/07/28 22:39:28;;;;;;;;;;;19.80;99.90;;;;;;12501958;28;19921;-43
2023/07/28 22:45:30;;;;;;;;;;;19.70;99.90;;;;;;12527318;28;20058;-43
2023/07/28 22:51:32;;;;;;;;;;;19.50;99.90;;;;;;12483253;28;19921;-43
2023/07/28 22:57:35;;;;;;;;;;;19.50;99.90;;;;;;12503519;28;19925;-43
2023/07/28 23:03:39;;;;;;;;;;;19.40;99.90;;;;;;12503114;28;19931;-43
2023/07/28 23:09:45;;;;;;;;;;;19.30;99.90;;;;;;12502301;28;20290;-43
2023/07/28 23:15:51;;;;;;;;;;;19.40;99.90;;;;;;12493485;28;19928;-43
2023/07/28 23:21:54;;;;;;;;;;;19.30;99.90;;;;;;12507888;28;19920;-43
2023/07/28 23:27:56;;;;;;;;;;;19.20;99.90;;;;;;12533912;28;19948;-43
2023/07/28 23:33:58;;;;;;;;;;;19.20;99.90;;;;;;12509631;28;19921;-43
2023/07/28 23:40:01;;;;;;;;;;;19.10;99.90;;;;;;12505395;28;19932;-43
2023/07/28 23:46:04;;;;;;;;;;;19.00;99.90;;;;;;12495064;28;19936;-43
2023/07/28 23:52:07;;;;;;;;;;;19.00;99.90;;;;;;12493936;28;19921;-43
2023/07/28 23:58:10;;;;;;;;;;;19.00;99.90;;;;;;12503553;28;19925;-43
